<?xml version="1.0" encoding="UTF-8" standalone="no" ?>
<gpx xmlns="http://www.topografix.com/GPX/1/1" xmlns:xsi="http://www.w3.org/2001/XMLSchema-instance" xsi:schemaLocation="http://www.topografix.com/GPX/1/1 http://www.topografix.com/GPX/1/1/gpx.xsd" version="1.1" creator="VisuGPX - https://www.visugpx.com">
  <metadata>
    <name>Les Glières 01</name>
    <desc><![CDATA[projet 01]]></desc>
  </metadata>
  <trk>
    <name><![CDATA[Les Glières 01_3]]></name>
    <extensions>
      <line xmlns="http://www.topografix.com/GPX/gpx_style/0/2">
        <color>FF0000</color>
        <width>4</width>
      </line>
    </extensions>
    <trkseg>
      <trkpt lat="46.05168" lon="6.3759">
        <ele>268</ele>
        <time>2020-09-30T13:46:27Z</time>
      </trkpt>
      <trkpt lat="46.05168" lon="6.3759">
        <ele>268</ele>
        <time>2020-09-30T13:46:27Z</time>
      </trkpt>
      <trkpt lat="46.05191" lon="6.37545">
        <ele>264.2</ele>
        <time>2020-09-30T13:46:31Z</time>
      </trkpt>
      <trkpt lat="46.05213" lon="6.37498">
        <ele>262.6</ele>
        <time>2020-09-30T13:46:35Z</time>
      </trkpt>
      <trkpt lat="46.05236" lon="6.37454">
        <ele>259.6</ele>
        <time>2020-09-30T13:46:39Z</time>
      </trkpt>
      <trkpt lat="46.05252" lon="6.37406">
        <ele>257.4</ele>
        <time>2020-09-30T13:46:43Z</time>
      </trkpt>
      <trkpt lat="46.05288" lon="6.37408">
        <ele>253.2</ele>
        <time>2020-09-30T13:46:47Z</time>
      </trkpt>
      <trkpt lat="46.05328" lon="6.37411">
        <ele>251.6</ele>
        <time>2020-09-30T13:46:51Z</time>
      </trkpt>
      <trkpt lat="46.05363" lon="6.37385">
        <ele>249.2</ele>
        <time>2020-09-30T13:46:55Z</time>
      </trkpt>
      <trkpt lat="46.05365" lon="6.37339">
        <ele>248.6</ele>
        <time>2020-09-30T13:46:59Z</time>
      </trkpt>
      <trkpt lat="46.05347" lon="6.37309">
        <ele>248.4</ele>
        <time>2020-09-30T13:47:03Z</time>
      </trkpt>
      <trkpt lat="46.05357" lon="6.37273">
        <ele>248.2</ele>
        <time>2020-09-30T13:47:07Z</time>
      </trkpt>
      <trkpt lat="46.05385" lon="6.37241">
        <ele>245.8</ele>
        <time>2020-09-30T13:47:11Z</time>
      </trkpt>
      <trkpt lat="46.05432" lon="6.37211">
        <ele>242.8</ele>
        <time>2020-09-30T13:47:15Z</time>
      </trkpt>
      <trkpt lat="46.05473" lon="6.37185">
        <ele>241.6</ele>
        <time>2020-09-30T13:47:19Z</time>
      </trkpt>
      <trkpt lat="46.05511" lon="6.37199">
        <ele>240.6</ele>
        <time>2020-09-30T13:47:23Z</time>
      </trkpt>
      <trkpt lat="46.05541" lon="6.37227">
        <ele>238.6</ele>
        <time>2020-09-30T13:47:27Z</time>
      </trkpt>
      <trkpt lat="46.05562" lon="6.37248">
        <ele>238.6</ele>
        <time>2020-09-30T13:47:31Z</time>
      </trkpt>
      <trkpt lat="46.05578" lon="6.37268">
        <ele>237.2</ele>
        <time>2020-09-30T13:47:35Z</time>
      </trkpt>
      <trkpt lat="46.05594" lon="6.37289">
        <ele>235.8</ele>
        <time>2020-09-30T13:47:39Z</time>
      </trkpt>
      <trkpt lat="46.05613" lon="6.37309">
        <ele>234.4</ele>
        <time>2020-09-30T13:47:43Z</time>
      </trkpt>
      <trkpt lat="46.05632" lon="6.37331">
        <ele>234.6</ele>
        <time>2020-09-30T13:47:47Z</time>
      </trkpt>
      <trkpt lat="46.0565" lon="6.37351">
        <ele>234.4</ele>
        <time>2020-09-30T13:47:51Z</time>
      </trkpt>
      <trkpt lat="46.05664" lon="6.37368">
        <ele>234.8</ele>
        <time>2020-09-30T13:47:55Z</time>
      </trkpt>
      <trkpt lat="46.05674" lon="6.37388">
        <ele>233.8</ele>
        <time>2020-09-30T13:47:59Z</time>
      </trkpt>
      <trkpt lat="46.05681" lon="6.37406">
        <ele>234.2</ele>
        <time>2020-09-30T13:48:03Z</time>
      </trkpt>
      <trkpt lat="46.05691" lon="6.37428">
        <ele>233</ele>
        <time>2020-09-30T13:48:07Z</time>
      </trkpt>
      <trkpt lat="46.05702" lon="6.37456">
        <ele>233</ele>
        <time>2020-09-30T13:48:11Z</time>
      </trkpt>
      <trkpt lat="46.05713" lon="6.37484">
        <ele>232.2</ele>
        <time>2020-09-30T13:48:15Z</time>
      </trkpt>
      <trkpt lat="46.05721" lon="6.37516">
        <ele>231.8</ele>
        <time>2020-09-30T13:48:19Z</time>
      </trkpt>
      <trkpt lat="46.05734" lon="6.37524">
        <ele>232.2</ele>
        <time>2020-09-30T13:48:23Z</time>
      </trkpt>
      <trkpt lat="46.05737" lon="6.37518">
        <ele>233.6</ele>
        <time>2020-09-30T13:48:27Z</time>
      </trkpt>
      <trkpt lat="46.05739" lon="6.37518">
        <ele>233.8</ele>
        <time>2020-09-30T13:48:31Z</time>
      </trkpt>
      <trkpt lat="46.05739" lon="6.37518">
        <ele>233.8</ele>
        <time>2020-09-30T13:48:35Z</time>
      </trkpt>
      <trkpt lat="46.05739" lon="6.37518">
        <ele>233.8</ele>
        <time>2020-09-30T13:48:39Z</time>
      </trkpt>
      <trkpt lat="46.05739" lon="6.37518">
        <ele>233.6</ele>
        <time>2020-09-30T13:48:43Z</time>
      </trkpt>
      <trkpt lat="46.05739" lon="6.37518">
        <ele>233.6</ele>
        <time>2020-09-30T13:48:47Z</time>
      </trkpt>
      <trkpt lat="46.05739" lon="6.37518">
        <ele>233.8</ele>
        <time>2020-09-30T13:48:51Z</time>
      </trkpt>
      <trkpt lat="46.05739" lon="6.37518">
        <ele>233.6</ele>
        <time>2020-09-30T13:48:55Z</time>
      </trkpt>
      <trkpt lat="46.05739" lon="6.37518">
        <ele>233.6</ele>
        <time>2020-09-30T13:48:59Z</time>
      </trkpt>
      <trkpt lat="46.05739" lon="6.37518">
        <ele>233.4</ele>
        <time>2020-09-30T13:49:03Z</time>
      </trkpt>
      <trkpt lat="46.05739" lon="6.37518">
        <ele>234</ele>
        <time>2020-09-30T13:49:07Z</time>
      </trkpt>
      <trkpt lat="46.05739" lon="6.37518">
        <ele>234</ele>
        <time>2020-09-30T13:49:11Z</time>
      </trkpt>
      <trkpt lat="46.05739" lon="6.37518">
        <ele>234</ele>
        <time>2020-09-30T13:49:15Z</time>
      </trkpt>
      <trkpt lat="46.05739" lon="6.37518">
        <ele>233.8</ele>
        <time>2020-09-30T13:49:19Z</time>
      </trkpt>
      <trkpt lat="46.05739" lon="6.37518">
        <ele>234</ele>
        <time>2020-09-30T13:49:23Z</time>
      </trkpt>
      <trkpt lat="46.05739" lon="6.37518">
        <ele>234</ele>
        <time>2020-09-30T13:49:27Z</time>
      </trkpt>
      <trkpt lat="46.05739" lon="6.37518">
        <ele>233.8</ele>
        <time>2020-09-30T13:49:31Z</time>
      </trkpt>
      <trkpt lat="46.05739" lon="6.37518">
        <ele>234</ele>
        <time>2020-09-30T13:49:35Z</time>
      </trkpt>
      <trkpt lat="46.05739" lon="6.37518">
        <ele>234</ele>
        <time>2020-09-30T13:49:39Z</time>
      </trkpt>
      <trkpt lat="46.05739" lon="6.37518">
        <ele>234</ele>
        <time>2020-09-30T13:49:43Z</time>
      </trkpt>
      <trkpt lat="46.05739" lon="6.37518">
        <ele>234</ele>
        <time>2020-09-30T13:49:47Z</time>
      </trkpt>
      <trkpt lat="46.05739" lon="6.37518">
        <ele>233.6</ele>
        <time>2020-09-30T13:49:51Z</time>
      </trkpt>
      <trkpt lat="46.05739" lon="6.37518">
        <ele>233.8</ele>
        <time>2020-09-30T13:49:55Z</time>
      </trkpt>
      <trkpt lat="46.05739" lon="6.37518">
        <ele>234</ele>
        <time>2020-09-30T13:49:59Z</time>
      </trkpt>
      <trkpt lat="46.05739" lon="6.37518">
        <ele>234.4</ele>
        <time>2020-09-30T13:50:03Z</time>
      </trkpt>
      <trkpt lat="46.05739" lon="6.37518">
        <ele>234.2</ele>
        <time>2020-09-30T13:50:07Z</time>
      </trkpt>
      <trkpt lat="46.05739" lon="6.37518">
        <ele>234.4</ele>
        <time>2020-09-30T13:50:11Z</time>
      </trkpt>
      <trkpt lat="46.05739" lon="6.37518">
        <ele>234.4</ele>
        <time>2020-09-30T13:50:15Z</time>
      </trkpt>
      <trkpt lat="46.05739" lon="6.37518">
        <ele>234.2</ele>
        <time>2020-09-30T13:50:19Z</time>
      </trkpt>
      <trkpt lat="46.05739" lon="6.37518">
        <ele>234.4</ele>
        <time>2020-09-30T13:50:23Z</time>
      </trkpt>
      <trkpt lat="46.05739" lon="6.37518">
        <ele>234.4</ele>
        <time>2020-09-30T13:50:27Z</time>
      </trkpt>
      <trkpt lat="46.05739" lon="6.37518">
        <ele>234.4</ele>
        <time>2020-09-30T13:50:31Z</time>
      </trkpt>
      <trkpt lat="46.05739" lon="6.37518">
        <ele>234.2</ele>
        <time>2020-09-30T13:50:35Z</time>
      </trkpt>
      <trkpt lat="46.05739" lon="6.37518">
        <ele>234.2</ele>
        <time>2020-09-30T13:50:39Z</time>
      </trkpt>
      <trkpt lat="46.05739" lon="6.37518">
        <ele>234.2</ele>
        <time>2020-09-30T13:50:43Z</time>
      </trkpt>
      <trkpt lat="46.05739" lon="6.37518">
        <ele>233.8</ele>
        <time>2020-09-30T13:50:47Z</time>
      </trkpt>
      <trkpt lat="46.05739" lon="6.37518">
        <ele>233.8</ele>
        <time>2020-09-30T13:50:51Z</time>
      </trkpt>
      <trkpt lat="46.05739" lon="6.37518">
        <ele>234.4</ele>
        <time>2020-09-30T13:50:55Z</time>
      </trkpt>
      <trkpt lat="46.05739" lon="6.37518">
        <ele>234.4</ele>
        <time>2020-09-30T13:50:59Z</time>
      </trkpt>
      <trkpt lat="46.05739" lon="6.37518">
        <ele>234.4</ele>
        <time>2020-09-30T13:51:03Z</time>
      </trkpt>
      <trkpt lat="46.05739" lon="6.37518">
        <ele>234.6</ele>
        <time>2020-09-30T13:51:07Z</time>
      </trkpt>
      <trkpt lat="46.05739" lon="6.37518">
        <ele>234.6</ele>
        <time>2020-09-30T13:51:11Z</time>
      </trkpt>
      <trkpt lat="46.05739" lon="6.37518">
        <ele>234.4</ele>
        <time>2020-09-30T13:51:15Z</time>
      </trkpt>
      <trkpt lat="46.05739" lon="6.37518">
        <ele>234.6</ele>
        <time>2020-09-30T13:51:19Z</time>
      </trkpt>
      <trkpt lat="46.05739" lon="6.37518">
        <ele>234.6</ele>
        <time>2020-09-30T13:51:23Z</time>
      </trkpt>
      <trkpt lat="46.05739" lon="6.37518">
        <ele>234.6</ele>
        <time>2020-09-30T13:51:27Z</time>
      </trkpt>
      <trkpt lat="46.05739" lon="6.37518">
        <ele>234.6</ele>
        <time>2020-09-30T13:51:31Z</time>
      </trkpt>
      <trkpt lat="46.05739" lon="6.37518">
        <ele>234.8</ele>
        <time>2020-09-30T13:51:35Z</time>
      </trkpt>
      <trkpt lat="46.05739" lon="6.37518">
        <ele>235</ele>
        <time>2020-09-30T13:51:39Z</time>
      </trkpt>
      <trkpt lat="46.05739" lon="6.37518">
        <ele>234.4</ele>
        <time>2020-09-30T13:51:43Z</time>
      </trkpt>
      <trkpt lat="46.05739" lon="6.37518">
        <ele>234.6</ele>
        <time>2020-09-30T13:51:47Z</time>
      </trkpt>
      <trkpt lat="46.05739" lon="6.37518">
        <ele>234.8</ele>
        <time>2020-09-30T13:51:51Z</time>
      </trkpt>
      <trkpt lat="46.05739" lon="6.37518">
        <ele>235.2</ele>
        <time>2020-09-30T13:51:55Z</time>
      </trkpt>
      <trkpt lat="46.05739" lon="6.37518">
        <ele>237.8</ele>
        <time>2020-09-30T13:51:59Z</time>
      </trkpt>
      <trkpt lat="46.05739" lon="6.37518">
        <ele>235.2</ele>
        <time>2020-09-30T13:52:03Z</time>
      </trkpt>
      <trkpt lat="46.05739" lon="6.37518">
        <ele>234.8</ele>
        <time>2020-09-30T13:52:07Z</time>
      </trkpt>
      <trkpt lat="46.05739" lon="6.37518">
        <ele>235.2</ele>
        <time>2020-09-30T13:52:11Z</time>
      </trkpt>
      <trkpt lat="46.05738" lon="6.37522">
        <ele>234.6</ele>
        <time>2020-09-30T13:52:15Z</time>
      </trkpt>
      <trkpt lat="46.05735" lon="6.37528">
        <ele>234.4</ele>
        <time>2020-09-30T13:52:19Z</time>
      </trkpt>
      <trkpt lat="46.05734" lon="6.37538">
        <ele>234</ele>
        <time>2020-09-30T13:52:23Z</time>
      </trkpt>
      <trkpt lat="46.05732" lon="6.37557">
        <ele>233.8</ele>
        <time>2020-09-30T13:52:27Z</time>
      </trkpt>
      <trkpt lat="46.05734" lon="6.3758">
        <ele>232.6</ele>
        <time>2020-09-30T13:52:31Z</time>
      </trkpt>
      <trkpt lat="46.05743" lon="6.3761">
        <ele>231.8</ele>
        <time>2020-09-30T13:52:35Z</time>
      </trkpt>
      <trkpt lat="46.05753" lon="6.37642">
        <ele>231.4</ele>
        <time>2020-09-30T13:52:39Z</time>
      </trkpt>
      <trkpt lat="46.05766" lon="6.3768">
        <ele>230.2</ele>
        <time>2020-09-30T13:52:43Z</time>
      </trkpt>
      <trkpt lat="46.05782" lon="6.37719">
        <ele>228.4</ele>
        <time>2020-09-30T13:52:47Z</time>
      </trkpt>
      <trkpt lat="46.0579" lon="6.37765">
        <ele>227.8</ele>
        <time>2020-09-30T13:52:51Z</time>
      </trkpt>
      <trkpt lat="46.05792" lon="6.37812">
        <ele>227.8</ele>
        <time>2020-09-30T13:52:55Z</time>
      </trkpt>
      <trkpt lat="46.05799" lon="6.37857">
        <ele>227.6</ele>
        <time>2020-09-30T13:52:59Z</time>
      </trkpt>
      <trkpt lat="46.05812" lon="6.37898">
        <ele>228.2</ele>
        <time>2020-09-30T13:53:03Z</time>
      </trkpt>
      <trkpt lat="46.05829" lon="6.37934">
        <ele>226.6</ele>
        <time>2020-09-30T13:53:07Z</time>
      </trkpt>
      <trkpt lat="46.05851" lon="6.37972">
        <ele>226.2</ele>
        <time>2020-09-30T13:53:11Z</time>
      </trkpt>
      <trkpt lat="46.05873" lon="6.3801">
        <ele>225.2</ele>
        <time>2020-09-30T13:53:15Z</time>
      </trkpt>
      <trkpt lat="46.05894" lon="6.38048">
        <ele>226.2</ele>
        <time>2020-09-30T13:53:19Z</time>
      </trkpt>
      <trkpt lat="46.05914" lon="6.38085">
        <ele>226.2</ele>
        <time>2020-09-30T13:53:23Z</time>
      </trkpt>
      <trkpt lat="46.05934" lon="6.3812">
        <ele>223.8</ele>
        <time>2020-09-30T13:53:27Z</time>
      </trkpt>
      <trkpt lat="46.05954" lon="6.38155">
        <ele>223.4</ele>
        <time>2020-09-30T13:53:31Z</time>
      </trkpt>
      <trkpt lat="46.05975" lon="6.38193">
        <ele>224.4</ele>
        <time>2020-09-30T13:53:35Z</time>
      </trkpt>
      <trkpt lat="46.05998" lon="6.38233">
        <ele>223</ele>
        <time>2020-09-30T13:53:39Z</time>
      </trkpt>
      <trkpt lat="46.06021" lon="6.38272">
        <ele>224.8</ele>
        <time>2020-09-30T13:53:43Z</time>
      </trkpt>
      <trkpt lat="46.06048" lon="6.38305">
        <ele>221.4</ele>
        <time>2020-09-30T13:53:47Z</time>
      </trkpt>
      <trkpt lat="46.06077" lon="6.38336">
        <ele>220.8</ele>
        <time>2020-09-30T13:53:51Z</time>
      </trkpt>
      <trkpt lat="46.06107" lon="6.38366">
        <ele>220.6</ele>
        <time>2020-09-30T13:53:55Z</time>
      </trkpt>
      <trkpt lat="46.06138" lon="6.38397">
        <ele>220.8</ele>
        <time>2020-09-30T13:53:59Z</time>
      </trkpt>
      <trkpt lat="46.06169" lon="6.38431">
        <ele>219.8</ele>
        <time>2020-09-30T13:54:03Z</time>
      </trkpt>
      <trkpt lat="46.06203" lon="6.38465">
        <ele>220.8</ele>
        <time>2020-09-30T13:54:07Z</time>
      </trkpt>
      <trkpt lat="46.06236" lon="6.38499">
        <ele>219.8</ele>
        <time>2020-09-30T13:54:11Z</time>
      </trkpt>
      <trkpt lat="46.06271" lon="6.38533">
        <ele>218</ele>
        <time>2020-09-30T13:54:15Z</time>
      </trkpt>
      <trkpt lat="46.06306" lon="6.38567">
        <ele>214.8</ele>
        <time>2020-09-30T13:54:19Z</time>
      </trkpt>
      <trkpt lat="46.0634" lon="6.38602">
        <ele>218.6</ele>
        <time>2020-09-30T13:54:23Z</time>
      </trkpt>
      <trkpt lat="46.06376" lon="6.38637">
        <ele>216.6</ele>
        <time>2020-09-30T13:54:27Z</time>
      </trkpt>
      <trkpt lat="46.06414" lon="6.38674">
        <ele>215.8</ele>
        <time>2020-09-30T13:54:31Z</time>
      </trkpt>
      <trkpt lat="46.06451" lon="6.3871">
        <ele>215.8</ele>
        <time>2020-09-30T13:54:35Z</time>
      </trkpt>
      <trkpt lat="46.06488" lon="6.38746">
        <ele>214.6</ele>
        <time>2020-09-30T13:54:39Z</time>
      </trkpt>
      <trkpt lat="46.06525" lon="6.38781">
        <ele>215.4</ele>
        <time>2020-09-30T13:54:43Z</time>
      </trkpt>
      <trkpt lat="46.0656" lon="6.38816">
        <ele>215</ele>
        <time>2020-09-30T13:54:47Z</time>
      </trkpt>
      <trkpt lat="46.06595" lon="6.38849">
        <ele>213.2</ele>
        <time>2020-09-30T13:54:51Z</time>
      </trkpt>
      <trkpt lat="46.06628" lon="6.38882">
        <ele>212</ele>
        <time>2020-09-30T13:54:55Z</time>
      </trkpt>
      <trkpt lat="46.06661" lon="6.38914">
        <ele>211</ele>
        <time>2020-09-30T13:54:59Z</time>
      </trkpt>
      <trkpt lat="46.06693" lon="6.38946">
        <ele>210.2</ele>
        <time>2020-09-30T13:55:03Z</time>
      </trkpt>
      <trkpt lat="46.06724" lon="6.38977">
        <ele>211.4</ele>
        <time>2020-09-30T13:55:07Z</time>
      </trkpt>
      <trkpt lat="46.06755" lon="6.39007">
        <ele>210.6</ele>
        <time>2020-09-30T13:55:11Z</time>
      </trkpt>
      <trkpt lat="46.06787" lon="6.39038">
        <ele>209.2</ele>
        <time>2020-09-30T13:55:15Z</time>
      </trkpt>
      <trkpt lat="46.06824" lon="6.39066">
        <ele>208.4</ele>
        <time>2020-09-30T13:55:19Z</time>
      </trkpt>
      <trkpt lat="46.06856" lon="6.39099">
        <ele>209.2</ele>
        <time>2020-09-30T13:55:23Z</time>
      </trkpt>
      <trkpt lat="46.06886" lon="6.39129">
        <ele>210.8</ele>
        <time>2020-09-30T13:55:27Z</time>
      </trkpt>
      <trkpt lat="46.06916" lon="6.39159">
        <ele>208.4</ele>
        <time>2020-09-30T13:55:31Z</time>
      </trkpt>
      <trkpt lat="46.06947" lon="6.3919">
        <ele>207.4</ele>
        <time>2020-09-30T13:55:35Z</time>
      </trkpt>
      <trkpt lat="46.06977" lon="6.3922">
        <ele>206.2</ele>
        <time>2020-09-30T13:55:39Z</time>
      </trkpt>
      <trkpt lat="46.07006" lon="6.39249">
        <ele>207.2</ele>
        <time>2020-09-30T13:55:43Z</time>
      </trkpt>
      <trkpt lat="46.07035" lon="6.39277">
        <ele>205.8</ele>
        <time>2020-09-30T13:55:47Z</time>
      </trkpt>
      <trkpt lat="46.07063" lon="6.39304">
        <ele>207.6</ele>
        <time>2020-09-30T13:55:51Z</time>
      </trkpt>
      <trkpt lat="46.0709" lon="6.39332">
        <ele>206.8</ele>
        <time>2020-09-30T13:55:55Z</time>
      </trkpt>
      <trkpt lat="46.07119" lon="6.3936">
        <ele>206.2</ele>
        <time>2020-09-30T13:55:59Z</time>
      </trkpt>
      <trkpt lat="46.07148" lon="6.39388">
        <ele>205.6</ele>
        <time>2020-09-30T13:56:03Z</time>
      </trkpt>
      <trkpt lat="46.07176" lon="6.39416">
        <ele>205.8</ele>
        <time>2020-09-30T13:56:07Z</time>
      </trkpt>
      <trkpt lat="46.07205" lon="6.39444">
        <ele>205.6</ele>
        <time>2020-09-30T13:56:11Z</time>
      </trkpt>
      <trkpt lat="46.07233" lon="6.39472">
        <ele>205.6</ele>
        <time>2020-09-30T13:56:15Z</time>
      </trkpt>
      <trkpt lat="46.07259" lon="6.39495">
        <ele>207.2</ele>
        <time>2020-09-30T13:56:19Z</time>
      </trkpt>
      <trkpt lat="46.07276" lon="6.39515">
        <ele>210.2</ele>
        <time>2020-09-30T13:56:23Z</time>
      </trkpt>
      <trkpt lat="46.07276" lon="6.39515">
        <ele>210.4</ele>
        <time>2020-09-30T13:56:27Z</time>
      </trkpt>
      <trkpt lat="46.07276" lon="6.39515">
        <ele>210.2</ele>
        <time>2020-09-30T13:56:31Z</time>
      </trkpt>
      <trkpt lat="46.07279" lon="6.39519">
        <ele>209.8</ele>
        <time>2020-09-30T13:56:35Z</time>
      </trkpt>
      <trkpt lat="46.07278" lon="6.3953">
        <ele>209.8</ele>
        <time>2020-09-30T13:56:39Z</time>
      </trkpt>
      <trkpt lat="46.07269" lon="6.3955">
        <ele>209.4</ele>
        <time>2020-09-30T13:56:43Z</time>
      </trkpt>
      <trkpt lat="46.07263" lon="6.39576">
        <ele>208.2</ele>
        <time>2020-09-30T13:56:47Z</time>
      </trkpt>
      <trkpt lat="46.07268" lon="6.39611">
        <ele>207</ele>
        <time>2020-09-30T13:56:51Z</time>
      </trkpt>
      <trkpt lat="46.07269" lon="6.39653">
        <ele>205.8</ele>
        <time>2020-09-30T13:56:55Z</time>
      </trkpt>
      <trkpt lat="46.07266" lon="6.39698">
        <ele>205.2</ele>
        <time>2020-09-30T13:56:59Z</time>
      </trkpt>
      <trkpt lat="46.07266" lon="6.39746">
        <ele>202.4</ele>
        <time>2020-09-30T13:57:03Z</time>
      </trkpt>
      <trkpt lat="46.0727" lon="6.39794">
        <ele>201.8</ele>
        <time>2020-09-30T13:57:07Z</time>
      </trkpt>
      <trkpt lat="46.07275" lon="6.39847">
        <ele>202.6</ele>
        <time>2020-09-30T13:57:11Z</time>
      </trkpt>
      <trkpt lat="46.07282" lon="6.399">
        <ele>201.4</ele>
        <time>2020-09-30T13:57:15Z</time>
      </trkpt>
      <trkpt lat="46.07291" lon="6.39954">
        <ele>201</ele>
        <time>2020-09-30T13:57:19Z</time>
      </trkpt>
      <trkpt lat="46.07302" lon="6.40006">
        <ele>200.2</ele>
        <time>2020-09-30T13:57:23Z</time>
      </trkpt>
      <trkpt lat="46.07317" lon="6.40056">
        <ele>201</ele>
        <time>2020-09-30T13:57:27Z</time>
      </trkpt>
      <trkpt lat="46.07333" lon="6.40103">
        <ele>201.4</ele>
        <time>2020-09-30T13:57:31Z</time>
      </trkpt>
      <trkpt lat="46.07348" lon="6.40143">
        <ele>201.8</ele>
        <time>2020-09-30T13:57:35Z</time>
      </trkpt>
      <trkpt lat="46.07365" lon="6.40177">
        <ele>202</ele>
        <time>2020-09-30T13:57:39Z</time>
      </trkpt>
      <trkpt lat="46.07381" lon="6.40207">
        <ele>200</ele>
        <time>2020-09-30T13:57:43Z</time>
      </trkpt>
      <trkpt lat="46.07397" lon="6.40238">
        <ele>200.4</ele>
        <time>2020-09-30T13:57:47Z</time>
      </trkpt>
      <trkpt lat="46.07406" lon="6.40263">
        <ele>201</ele>
        <time>2020-09-30T13:57:51Z</time>
      </trkpt>
      <trkpt lat="46.07407" lon="6.4029">
        <ele>200.8</ele>
        <time>2020-09-30T13:57:55Z</time>
      </trkpt>
      <trkpt lat="46.07415" lon="6.40321">
        <ele>199.2</ele>
        <time>2020-09-30T13:57:59Z</time>
      </trkpt>
      <trkpt lat="46.07441" lon="6.40335">
        <ele>198.4</ele>
        <time>2020-09-30T13:58:03Z</time>
      </trkpt>
      <trkpt lat="46.0746" lon="6.40369">
        <ele>198.2</ele>
        <time>2020-09-30T13:58:07Z</time>
      </trkpt>
      <trkpt lat="46.07478" lon="6.40407">
        <ele>198.4</ele>
        <time>2020-09-30T13:58:11Z</time>
      </trkpt>
      <trkpt lat="46.07495" lon="6.40443">
        <ele>199.2</ele>
        <time>2020-09-30T13:58:15Z</time>
      </trkpt>
      <trkpt lat="46.07509" lon="6.4048">
        <ele>199.4</ele>
        <time>2020-09-30T13:58:19Z</time>
      </trkpt>
      <trkpt lat="46.07507" lon="6.40516">
        <ele>200.2</ele>
        <time>2020-09-30T13:58:23Z</time>
      </trkpt>
      <trkpt lat="46.07507" lon="6.40547">
        <ele>200</ele>
        <time>2020-09-30T13:58:27Z</time>
      </trkpt>
      <trkpt lat="46.07528" lon="6.40554">
        <ele>201</ele>
        <time>2020-09-30T13:58:31Z</time>
      </trkpt>
      <trkpt lat="46.0755" lon="6.40561">
        <ele>203.4</ele>
        <time>2020-09-30T13:58:35Z</time>
      </trkpt>
      <trkpt lat="46.07564" lon="6.40588">
        <ele>203</ele>
        <time>2020-09-30T13:58:39Z</time>
      </trkpt>
      <trkpt lat="46.07579" lon="6.40616">
        <ele>203.6</ele>
        <time>2020-09-30T13:58:43Z</time>
      </trkpt>
      <trkpt lat="46.07596" lon="6.40647">
        <ele>201.2</ele>
        <time>2020-09-30T13:58:47Z</time>
      </trkpt>
      <trkpt lat="46.07614" lon="6.4068">
        <ele>201.4</ele>
        <time>2020-09-30T13:58:51Z</time>
      </trkpt>
      <trkpt lat="46.07629" lon="6.40698">
        <ele>200.8</ele>
        <time>2020-09-30T13:58:55Z</time>
      </trkpt>
      <trkpt lat="46.07643" lon="6.40675">
        <ele>200.6</ele>
        <time>2020-09-30T13:58:59Z</time>
      </trkpt>
      <trkpt lat="46.07663" lon="6.40653">
        <ele>202.4</ele>
        <time>2020-09-30T13:59:03Z</time>
      </trkpt>
      <trkpt lat="46.07674" lon="6.40645">
        <ele>202.4</ele>
        <time>2020-09-30T13:59:07Z</time>
      </trkpt>
      <trkpt lat="46.07682" lon="6.40638">
        <ele>201.8</ele>
        <time>2020-09-30T13:59:11Z</time>
      </trkpt>
      <trkpt lat="46.07695" lon="6.40626">
        <ele>201</ele>
        <time>2020-09-30T13:59:15Z</time>
      </trkpt>
      <trkpt lat="46.07714" lon="6.40612">
        <ele>200.6</ele>
        <time>2020-09-30T13:59:19Z</time>
      </trkpt>
      <trkpt lat="46.07738" lon="6.40595">
        <ele>199.4</ele>
        <time>2020-09-30T13:59:23Z</time>
      </trkpt>
      <trkpt lat="46.07764" lon="6.40574">
        <ele>199.6</ele>
        <time>2020-09-30T13:59:27Z</time>
      </trkpt>
      <trkpt lat="46.07786" lon="6.40556">
        <ele>200.8</ele>
        <time>2020-09-30T13:59:31Z</time>
      </trkpt>
      <trkpt lat="46.07803" lon="6.40544">
        <ele>200.8</ele>
        <time>2020-09-30T13:59:35Z</time>
      </trkpt>
      <trkpt lat="46.07819" lon="6.40531">
        <ele>200.2</ele>
        <time>2020-09-30T13:59:39Z</time>
      </trkpt>
      <trkpt lat="46.07835" lon="6.40519">
        <ele>199.8</ele>
        <time>2020-09-30T13:59:43Z</time>
      </trkpt>
      <trkpt lat="46.07853" lon="6.40505">
        <ele>200.4</ele>
        <time>2020-09-30T13:59:47Z</time>
      </trkpt>
      <trkpt lat="46.07866" lon="6.40493">
        <ele>201.6</ele>
        <time>2020-09-30T13:59:51Z</time>
      </trkpt>
      <trkpt lat="46.07881" lon="6.40484">
        <ele>200.4</ele>
        <time>2020-09-30T13:59:55Z</time>
      </trkpt>
      <trkpt lat="46.07898" lon="6.40471">
        <ele>200</ele>
        <time>2020-09-30T13:59:59Z</time>
      </trkpt>
      <trkpt lat="46.07914" lon="6.40457">
        <ele>201.2</ele>
        <time>2020-09-30T14:00:03Z</time>
      </trkpt>
      <trkpt lat="46.07925" lon="6.4045">
        <ele>201.2</ele>
        <time>2020-09-30T14:00:07Z</time>
      </trkpt>
      <trkpt lat="46.07934" lon="6.40446">
        <ele>201.2</ele>
        <time>2020-09-30T14:00:11Z</time>
      </trkpt>
      <trkpt lat="46.07946" lon="6.40434">
        <ele>200.2</ele>
        <time>2020-09-30T14:00:15Z</time>
      </trkpt>
      <trkpt lat="46.07965" lon="6.4042">
        <ele>199.6</ele>
        <time>2020-09-30T14:00:19Z</time>
      </trkpt>
      <trkpt lat="46.07989" lon="6.40402">
        <ele>196.2</ele>
        <time>2020-09-30T14:00:23Z</time>
      </trkpt>
      <trkpt lat="46.08016" lon="6.40379">
        <ele>196.4</ele>
        <time>2020-09-30T14:00:27Z</time>
      </trkpt>
      <trkpt lat="46.08042" lon="6.40354">
        <ele>196.4</ele>
        <time>2020-09-30T14:00:31Z</time>
      </trkpt>
      <trkpt lat="46.0807" lon="6.40328">
        <ele>197</ele>
        <time>2020-09-30T14:00:35Z</time>
      </trkpt>
      <trkpt lat="46.08096" lon="6.40303">
        <ele>199.6</ele>
        <time>2020-09-30T14:00:39Z</time>
      </trkpt>
      <trkpt lat="46.08111" lon="6.40298">
        <ele>201.6</ele>
        <time>2020-09-30T14:00:43Z</time>
      </trkpt>
      <trkpt lat="46.08122" lon="6.40314">
        <ele>200.8</ele>
        <time>2020-09-30T14:00:47Z</time>
      </trkpt>
      <trkpt lat="46.08135" lon="6.40333">
        <ele>201</ele>
        <time>2020-09-30T14:00:51Z</time>
      </trkpt>
      <trkpt lat="46.08148" lon="6.4035">
        <ele>200.2</ele>
        <time>2020-09-30T14:00:55Z</time>
      </trkpt>
      <trkpt lat="46.08163" lon="6.40369">
        <ele>200.2</ele>
        <time>2020-09-30T14:00:59Z</time>
      </trkpt>
      <trkpt lat="46.08178" lon="6.40387">
        <ele>200</ele>
        <time>2020-09-30T14:01:03Z</time>
      </trkpt>
      <trkpt lat="46.08186" lon="6.40397">
        <ele>200</ele>
        <time>2020-09-30T14:01:07Z</time>
      </trkpt>
      <trkpt lat="46.08196" lon="6.40406">
        <ele>199</ele>
        <time>2020-09-30T14:01:11Z</time>
      </trkpt>
      <trkpt lat="46.08211" lon="6.40393">
        <ele>198</ele>
        <time>2020-09-30T14:01:15Z</time>
      </trkpt>
    </trkseg>
  </trk>
</gpx>